Garner, North Carolina
Current Conditions -  °F | °C
As of 5:51 PM on Sunday 23 Nov 2014 (Local Time) from KRDU Reporting Station
Light Rain Light Rain  
Wind Chill: 56°   Ceiling: 1500
Heat Index: 56°   Visibility: 5mi
Dew Point: 53°   Wind: 10mph
Humidity: 90%   Direction: 110°ESE
Pressure: 29.96"   Gusts: NA
Location:  35.71°N, 78.62°W
Report Text: KRDU 232251Z 11009KT 5SM -RA BR BKN015 OVC021 13/12 A2996 RMK AO2 SLP145 P0000 T01330117 $
Loading
Personal Weather Stations






























Interactive Weather Map New forecast layout! Learn more

10-Day Weather Forecast

Advertisements
Track Severe Weather on mobile